Time;durP1;ratioP1;P1;durP2;ratioP2;P2;SDS_P1;SDS_P2;PMS_P1;PMS_P2;Temp;Humidity;BMP_temperature;BMP_pressure;BME280_temperature;BME280_humidity;BME280_pressure;Samples;Min_cycle;Max_cycle;Signal;HPM_P1;HPM_P2
2023/02/24 00:02:03;;;;;;;12.38;7.07;;;7.40;99.90;;;7.38;77.74;101550.63;5036533;28;20037;-70
2023/02/24 00:04:37;;;;;;;14.27;6.80;;;7.30;99.90;;;7.32;78.45;101554.91;5036102;28;20475;-70
2023/02/24 00:07:09;;;;;;;15.55;7.40;;;7.20;99.90;;;7.23;78.51;101547.69;5036049;28;20041;-69
2023/02/24 00:09:38;;;;;;;18.83;7.70;;;7.10;99.90;;;7.28;79.24;101564.44;5036293;28;20144;-69
2023/02/24 00:12:10;;;;;;;15.35;7.47;;;7.10;99.90;;;7.26;78.83;101546.00;5035849;28;20051;-70
2023/02/24 00:14:41;;;;;;;23.02;8.15;;;7.00;99.90;;;7.24;79.15;101528.41;5035146;28;20056;-69
2023/02/24 00:17:13;;;;;;;18.42;6.60;;;7.10;99.90;;;7.34;78.49;101538.25;5036200;28;20103;-70
2023/02/24 00:19:41;;;;;;;22.17;7.20;;;7.10;99.90;;;7.32;77.81;101514.56;5036108;28;20128;-69
2023/02/24 00:22:12;;;;;;;22.80;8.40;;;7.20;99.90;;;7.26;77.32;101496.00;5035919;28;20045;-69
2023/02/24 00:24:40;;;;;;;;;;;7.20;99.90;;;7.47;77.22;101529.72;5036092;28;20048;-69
2023/02/24 00:27:10;;;;;;;14.50;6.72;;;7.30;99.90;;;7.47;74.75;101519.19;5035056;28;19925;-70
2023/02/24 00:29:40;;;;;;;16.15;7.28;;;7.20;99.90;;;7.44;75.06;101519.16;5051208;28;20054;-70
2023/02/24 00:32:11;;;;;;;16.00;7.40;;;7.30;99.90;;;7.42;77.21;101510.34;5035899;28;20558;-70
2023/02/24 00:34:41;;;;;;;20.27;7.40;;;7.30;99.90;;;7.46;76.87;101506.91;5035615;28;20049;-68
2023/02/24 00:37:14;;;;;;;12.27;6.30;;;7.30;99.90;;;7.40;77.49;101498.91;5051101;28;20055;-69
2023/02/24 00:39:44;;;;;;;11.93;5.78;;;7.20;99.90;;;7.38;78.18;101497.97;5035741;28;20060;-70
2023/02/24 00:42:13;;;;;;;11.68;6.32;;;7.20;99.90;;;6.99;77.87;101428.84;5034316;28;20050;-69
2023/02/24 00:44:46;;;;;;;18.88;7.20;;;7.20;99.90;;;7.08;77.73;101426.41;5050847;28;20191;-70
2023/02/24 00:47:16;;;;;;;11.00;7.10;;;7.20;99.90;;;7.43;77.86;101498.06;5050845;28;20057;-70
2023/02/24 00:49:44;;;;;;;14.68;6.32;;;7.20;99.90;;;7.19;77.00;101466.94;5034352;28;20077;-69
2023/02/24 00:52:18;;;;;;;10.95;6.63;;;7.20;99.90;;;7.43;76.10;101491.09;5035061;28;20402;-70
2023/02/24 00:54:48;;;;;;;14.77;5.90;;;7.20;99.90;;;7.26;75.54;101458.28;5035211;28;20045;-70
2023/02/24 00:57:19;;;;;;;15.07;6.78;;;7.10;99.90;;;7.49;74.70;101478.00;5034040;28;20059;-70
2023/02/24 00:59:50;;;;;;;17.10;7.00;;;7.30;99.90;;;7.38;73.88;101476.03;5035382;28;20042;-70
2023/02/24 01:02:19;;;;;;;;;;;7.20;99.90;;;7.49;73.05;101478.00;5035751;28;20048;-70
2023/02/24 01:04:48;;;;;;;15.15;6.50;;;7.30;99.90;;;7.44;72.79;101474.41;5033978;28;19952;-70
2023/02/24 01:07:18;;;;;;;18.15;6.28;;;7.20;99.90;;;7.42;71.31;101470.88;5049661;28;20065;-70
2023/02/24 01:09:50;;;;;;;17.33;6.17;;;7.10;99.90;;;7.48;71.42;101467.44;5034945;28;20041;-70
2023/02/24 01:15:03;;;;;;;14.50;6.05;;;7.30;99.90;;;7.57;69.58;101457.09;5049778;28;20053;-69
2023/02/24 01:17:35;;;;;;;15.48;5.65;;;7.30;99.90;;;7.59;70.31;101453.63;5035098;28;20045;-69
2023/02/24 01:20:14;;;;;;;15.93;6.50;;;7.40;99.90;;;7.43;69.32;101422.66;5033797;28;20081;-69
2023/02/24 01:22:46;;;;;;;17.55;6.53;;;7.40;99.90;;;7.63;69.17;101451.91;5035185;28;20045;-69
2023/02/24 01:25:16;;;;;;;16.52;6.05;;;7.40;99.90;;;7.51;69.25;101446.47;5050168;28;20084;-69
2023/02/24 01:27:45;;;;;;;13.85;6.50;;;7.30;99.90;;;7.43;68.69;101411.22;5034757;28;20053;-70
2023/02/24 01:30:16;;;;;;;14.55;5.97;;;7.30;99.90;;;7.46;68.94;101466.53;5035059;28;20085;-69
2023/02/24 01:32:46;;;;;;;14.43;6.00;;;7.20;99.90;;;7.49;68.62;101422.72;5050067;28;20140;-69
2023/02/24 01:35:16;;;;;;;;;;;7.20;99.90;;;7.59;67.89;101422.03;5050072;28;20053;-70
2023/02/24 01:37:46;;;;;;;17.63;6.15;;;7.30;99.90;;;7.60;66.80;101417.66;5034667;28;19932;-69
2023/02/24 01:40:19;;;;;;;10.10;5.27;;;7.40;99.90;;;7.67;66.96;101407.25;5034642;28;20107;-69
2023/02/24 01:42:49;;;;;;;14.85;6.35;;;7.40;99.90;;;7.61;65.92;101395.72;5034272;28;20639;-69
2023/02/24 01:45:27;;;;;;;14.48;5.95;;;7.40;99.90;;;7.26;67.41;101395.13;5034439;28;20034;-69
2023/02/24 01:48:01;;;;;;;10.88;5.80;;;7.20;99.90;;;7.31;67.77;101398.75;5032861;28;20505;-70
2023/02/24 01:50:31;;;;;;;14.60;5.80;;;7.10;99.90;;;7.16;67.75;101396.72;5034747;28;20451;-69
2023/02/24 01:53:03;;;;;;;;;;;7.00;99.90;;;6.99;68.15;101366.63;5034837;28;20038;-69
2023/02/24 01:55:36;;;;;;;12.93;5.60;;;6.90;99.90;;;7.16;67.09;101385.34;5033302;28;19921;-69
2023/02/24 01:58:11;;;;;;;17.75;5.70;;;7.00;99.90;;;7.13;67.00;101380.00;5049594;28;20064;-69
2023/02/24 02:00:45;;;;;;;14.35;6.20;;;6.90;99.90;;;7.06;66.93;101380.78;5049754;28;20140;-69
2023/02/24 02:03:23;;;;;;;15.45;5.50;;;6.80;99.90;;;7.14;67.21;101381.81;5032908;28;20053;-69
2023/02/24 02:05:57;;;;;;;17.20;5.95;;;6.90;99.90;;;7.26;66.91;101371.47;5032871;28;20057;-69
2023/02/24 02:08:28;;;;;;;17.20;5.57;;;7.00;99.90;;;7.40;67.33;101376.97;5033796;28;20120;-69
2023/02/24 02:11:04;;;;;;;12.95;5.88;;;7.10;99.90;;;7.43;67.46;101364.75;5034042;28;20064;-69
2023/02/24 02:13:36;;;;;;;16.13;5.50;;;7.20;99.90;;;7.30;67.24;101344.34;5033980;28;20037;-69
2023/02/24 02:16:43;;;;;;;18.30;6.22;;;7.30;99.90;;;7.47;67.51;101347.28;5033931;28;20396;-69
2023/02/24 02:19:56;;;;;;;11.27;5.18;;;7.30;99.90;;;7.67;67.40;101359.84;5031438;28;20057;-70
2023/02/24 02:22:57;;;;;;;14.38;5.60;;;7.40;99.90;;;7.73;67.10;101351.16;5016988;28;20057;-69
2023/02/24 02:25:44;;;;;;;16.02;5.18;;;7.50;99.90;;;7.71;67.82;101347.63;5033397;28;20049;-69
2023/02/24 02:29:24;;;;;;;14.23;5.60;;;7.50;99.90;;;7.72;67.95;101349.41;5032404;28;20476;-69
2023/02/24 02:32:50;;;;;;;14.57;5.57;;;7.50;99.90;;;7.63;68.28;101420.31;4975528;28;20046;-69
2023/02/24 02:35:26;;;;;;;11.15;5.65;;;7.50;99.90;;;7.39;68.47;101278.72;4933665;28;20094;-69
2023/02/24 02:38:05;;;;;;;18.13;6.13;;;7.50;99.90;;;7.69;67.92;101337.06;4986479;28;20058;-69
2023/02/24 02:40:41;;;;;;;15.18;5.78;;;7.50;99.90;;;7.69;67.48;101321.28;5010923;28;20472;-69
2023/02/24 02:43:17;;;;;;;16.75;5.75;;;7.50;99.90;;;7.57;66.86;101314.97;5032107;28;20103;-69
2023/02/24 02:45:54;;;;;;;15.63;5.45;;;7.40;99.90;;;7.19;66.49;101267.00;5033072;28;20038;-69
2023/02/24 02:48:32;;;;;;;11.63;5.95;;;7.30;99.90;;;7.46;66.69;101321.78;5033341;28;20408;-70
2023/02/24 02:51:09;;;;;;;14.00;5.60;;;7.20;99.90;;;7.20;66.75;101313.50;5033106;28;20111;-69
2023/02/24 02:53:48;;;;;;;13.43;5.35;;;7.00;99.90;;;7.02;67.08;101310.56;5048840;28;20054;-70
2023/02/24 02:56:21;;;;;;;12.23;5.18;;;6.80;99.90;;;7.00;67.03;101310.56;5033643;28;20045;-69
2023/02/24 02:58:54;;;;;;;12.32;6.18;;;6.80;99.90;;;7.01;67.24;101303.53;5033002;28;20056;-69
2023/02/24 03:01:28;;;;;;;10.55;5.65;;;6.70;99.90;;;6.98;67.45;101293.84;5031860;28;20045;-69
2023/02/24 03:04:03;;;;;;;10.43;5.55;;;6.80;99.90;;;7.18;67.04;101283.66;5033053;28;20492;-69
2023/02/24 03:06:36;;;;;;;13.40;5.30;;;6.90;99.90;;;7.36;66.75;101286.56;5031974;28;20488;-69
2023/02/24 03:09:11;;;;;;;9.70;5.93;;;7.10;99.90;;;7.41;66.91;101274.38;5033087;28;20041;-69
2023/02/24 03:11:41;;;;;;;13.40;5.57;;;7.30;99.90;;;7.42;66.79;101285.75;5033008;28;20053;-70
2023/02/24 03:14:15;;;;;;;16.10;5.30;;;7.30;99.90;;;7.32;66.36;101285.63;5048332;28;20100;-69
2023/02/24 03:16:48;;;;;;;12.82;4.97;;;7.20;99.90;;;7.32;66.24;101276.84;5031738;28;20048;-69
2023/02/24 03:19:22;;;;;;;15.55;5.18;;;7.10;99.90;;;7.47;66.04;101271.81;5031681;28;20049;-69
2023/02/24 03:22:00;;;;;;;8.43;4.63;;;7.20;99.90;;;7.50;66.02;101269.25;5032897;28;20099;-69
2023/02/24 03:24:29;;;;;;;13.00;5.20;;;7.30;99.90;;;7.51;66.14;101271.00;5048093;28;20103;-70
2023/02/24 03:27:06;;;;;;;10.80;5.43;;;7.30;99.90;;;6.77;65.47;101140.13;5047949;28;20077;-69
2023/02/24 03:29:44;;;;;;;12.40;4.55;;;7.30;99.90;;;7.51;66.09;101262.22;5031256;28;20046;-69
2023/02/24 03:32:18;;;;;;;12.65;5.60;;;7.30;99.90;;;7.55;65.90;101275.44;5031608;28;20049;-69
2023/02/24 03:34:55;;;;;;;10.82;5.65;;;7.40;99.90;;;7.69;65.28;101247.56;5031583;28;20060;-68
2023/02/24 03:37:28;;;;;;;10.75;4.97;;;7.50;99.90;;;7.73;66.04;101248.47;5031223;28;20061;-69
2023/02/24 03:40:10;;;;;;;8.95;5.28;;;7.50;99.90;;;7.82;65.45;101240.72;5048104;28;20445;-69
2023/02/24 03:42:43;;;;;;;13.10;5.28;;;7.70;99.90;;;7.92;65.93;101247.84;5048311;28;20081;-69
2023/02/24 03:45:15;;;;;;;10.23;5.05;;;7.70;99.90;;;7.94;65.72;101230.31;5031451;28;20045;-70
2023/02/24 03:47:45;;;;;;;11.45;4.78;;;7.80;99.90;;;7.88;65.53;101238.13;5047969;28;20144;-69
2023/02/24 03:50:16;;;;;;;10.35;4.82;;;7.80;99.90;;;7.50;64.99;101144.66;5047995;28;20053;-69
2023/02/24 03:53:01;;;;;;;9.73;4.88;;;7.80;99.90;;;7.61;65.33;101154.44;5031281;28;20141;-70
2023/02/24 03:55:43;;;;;;;7.07;4.85;;;7.80;99.90;;;8.05;65.51;101216.41;5031488;28;20080;-69
2023/02/24 03:58:20;;;;;;;11.15;4.70;;;7.90;99.90;;;7.98;65.09;101208.41;5030996;28;20053;-69
2023/02/24 04:01:04;;;;;;;11.27;5.18;;;7.90;99.90;;;8.03;64.76;101212.00;5047559;28;20081;-69
2023/02/24 04:03:39;;;;;;;8.63;4.68;;;7.90;99.90;;;7.88;64.99;101212.69;5031131;28;20077;-69
2023/02/24 04:06:29;;;;;;;10.05;4.63;;;7.70;99.90;;;7.71;65.23;101208.97;5031113;28;20054;-70
2023/02/24 04:09:07;;;;;;;9.82;4.70;;;7.60;99.90;;;7.58;65.58;101200.91;5047699;28;20148;-69
2023/02/24 04:11:53;;;;;;;8.93;5.13;;;7.50;99.90;;;7.62;65.47;101208.88;5030855;28;20053;-69
2023/02/24 04:14:29;;;;;;;13.75;5.30;;;7.40;99.90;;;7.43;66.02;101175.28;5047883;28;20068;-69
2023/02/24 04:17:06;;;;;;;10.90;5.22;;;7.40;99.90;;;7.59;65.79;101202.69;5047373;28;20079;-69
2023/02/24 04:19:40;;;;;;;13.32;4.82;;;7.50;99.90;;;7.56;65.95;101166.69;5031132;28;20550;-69
2023/02/24 04:22:16;;;;;;;16.80;5.18;;;7.60;99.90;;;7.70;65.86;101195.81;5031081;28;20136;-69
2023/02/24 04:24:51;;;;;;;12.02;5.38;;;7.60;99.90;;;7.59;65.84;101187.75;5030670;28;20057;-69
2023/02/24 04:27:21;;;;;;;8.43;5.13;;;7.50;99.90;;;7.72;65.55;101191.44;5047525;28;20063;-69
2023/02/24 04:29:55;;;;;;;9.10;5.40;;;7.50;99.90;;;7.65;65.78;101185.22;5030950;28;20050;-69
2023/02/24 04:32:28;;;;;;;12.20;5.22;;;7.50;99.90;;;7.64;66.16;101175.56;5030926;28;20411;-69
2023/02/24 04:35:05;;;;;;;9.20;5.38;;;7.50;99.90;;;7.59;66.32;101158.81;5030902;28;20084;-69
2023/02/24 04:37:35;;;;;;;10.07;5.15;;;7.50;99.90;;;7.54;66.73;101143.81;5030436;28;20107;-69
2023/02/24 04:40:11;;;;;;;12.60;4.82;;;7.60;99.90;;;7.73;66.96;101164.22;5032390;28;20079;-69
2023/02/24 04:42:45;;;;;;;17.67;5.57;;;7.60;99.90;;;7.77;66.98;101155.50;5049214;28;20049;-69
2023/02/24 04:45:15;;;;;;;9.52;5.63;;;7.60;99.90;;;7.75;67.38;101155.50;5034539;28;20511;-69
2023/02/24 04:47:48;;;;;;;10.93;5.68;;;7.60;99.90;;;7.91;67.23;101138.13;5035310;28;20103;-70
2023/02/24 04:50:22;;;;;;;17.27;5.68;;;7.70;99.90;;;7.88;67.46;101148.59;5035311;28;20061;-69
2023/02/24 04:52:53;;;;;;;15.63;5.35;;;7.70;99.90;;;7.91;67.73;101133.75;5035226;28;20041;-70
2023/02/24 04:55:28;;;;;;;21.15;6.95;;;7.80;99.90;;;7.61;67.49;101080.75;5034453;28;20050;-70
2023/02/24 04:57:57;;;;;;;14.38;6.20;;;7.80;99.90;;;7.90;67.73;101118.78;5034468;28;20050;-69
2023/02/24 05:00:28;;;;;;;10.73;5.45;;;7.90;99.90;;;7.92;67.47;101130.22;5034107;28;20069;-69
2023/02/24 05:02:58;;;;;;;19.73;6.70;;;7.70;99.90;;;7.90;67.88;101125.81;5035325;28;20038;-69
2023/02/24 05:05:27;;;;;;;10.63;5.97;;;7.70;99.90;;;7.92;68.08;101124.06;5033904;28;20068;-69
2023/02/24 05:08:01;;;;;;;13.20;6.53;;;7.80;99.90;;;7.87;68.11;101116.16;5034963;28;20048;-69
2023/02/24 05:10:38;;;;;;;12.65;6.07;;;7.70;99.90;;;7.91;68.52;101114.41;5035193;28;20045;-69
2023/02/24 05:13:08;;;;;;;20.15;6.13;;;7.70;99.90;;;7.96;68.53;101115.34;5034931;28;20045;-69
2023/02/24 05:15:41;;;;;;;14.80;5.75;;;7.80;99.90;;;7.89;68.56;101114.41;5034792;28;20496;-69
2023/02/24 05:18:15;;;;;;;15.55;5.70;;;7.70;99.90;;;7.81;68.63;101109.91;5034825;28;20041;-69
2023/02/24 05:23:38;;;;;;;12.05;5.63;;;7.70;99.90;;;7.87;68.81;101094.19;5050438;28;20049;-69
2023/02/24 05:26:09;;;;;;;15.95;6.05;;;7.80;99.90;;;7.92;69.16;101100.38;5033222;28;20051;-69
2023/02/24 05:28:40;;;;;;;13.45;6.13;;;7.70;99.90;;;7.90;69.30;101095.09;5034640;28;20041;-69
2023/02/24 05:31:13;;;;;;;11.90;6.30;;;7.70;99.90;;;8.00;68.98;101077.63;5034586;28;20480;-69
2023/02/24 05:33:45;;;;;;;19.55;6.85;;;7.80;99.90;;;7.72;68.74;101052.81;5034521;28;20523;-69
2023/02/24 05:36:17;;;;;;;14.43;6.50;;;7.80;99.90;;;7.92;69.14;101081.94;5034868;28;20550;-68
2023/02/24 05:38:46;;;;;;;18.38;7.25;;;7.70;99.90;;;7.71;69.30;101051.03;5034731;28;20112;-69
2023/02/24 05:41:18;;;;;;;15.93;6.30;;;7.80;99.90;;;7.90;69.31;101067.88;5033329;28;20045;-69
2023/02/24 05:43:52;;;;;;;16.98;6.45;;;7.80;99.90;;;7.93;69.21;101074.06;5034399;28;20823;-69
2023/02/24 05:46:26;;;;;;;17.30;6.50;;;7.80;99.90;;;7.90;69.34;101054.69;5034220;28;20049;-69
2023/02/24 05:48:56;;;;;;;18.33;6.10;;;7.90;99.90;;;7.91;69.52;101067.91;5034701;28;20045;-69
2023/02/24 05:51:25;;;;;;;16.20;6.50;;;7.80;99.90;;;7.93;69.44;101060.91;5034625;28;20136;-69
2023/02/24 05:53:54;;;;;;;11.15;5.78;;;7.80;99.90;;;7.96;69.05;101047.75;5034047;28;20132;-68
2023/02/24 05:56:26;;;;;;;12.95;6.05;;;7.80;99.90;;;7.69;69.88;101036.06;5034010;28;20053;-69
2023/02/24 05:59:00;;;;;;;14.15;6.20;;;7.60;99.90;;;7.84;70.11;101036.25;5034010;28;20484;-69
2023/02/24 06:01:30;;;;;;;13.38;6.00;;;7.70;99.90;;;7.82;69.82;101016.91;5034010;28;20065;-69
2023/02/24 06:04:04;;;;;;;15.30;5.88;;;7.80;99.90;;;7.83;69.85;101030.09;5034455;28;20076;-69
2023/02/24 06:06:35;;;;;;;17.52;6.28;;;7.70;99.90;;;7.91;70.18;101028.41;5049646;28;20061;-69
2023/02/24 06:09:09;;;;;;;21.80;6.53;;;7.70;99.90;;;8.00;70.28;101024.94;5034380;28;20064;-69
2023/02/24 06:11:41;;;;;;;15.65;6.68;;;7.80;99.90;;;7.80;70.14;101027.41;5033837;28;20412;-69
2023/02/24 06:14:11;;;;;;;17.88;6.32;;;7.70;99.90;;;7.89;70.65;101029.25;5034111;28;20071;-70
2023/02/24 06:16:42;;;;;;;20.70;7.10;;;7.70;99.90;;;7.74;71.08;100997.53;5034291;28;20049;-69
2023/02/24 06:19:12;;;;;;;13.00;5.97;;;7.80;99.90;;;7.92;71.05;101061.75;5033789;28;20555;-69
2023/02/24 06:21:42;;;;;;;18.05;6.32;;;7.80;99.90;;;7.95;71.43;101006.50;5033854;28;20136;-69
2023/02/24 06:24:14;;;;;;;20.40;6.47;;;7.80;99.90;;;7.82;71.78;100974.78;5049157;28;20500;-70
2023/02/24 06:26:43;;;;;;;17.60;6.38;;;7.80;99.90;;;7.98;71.43;100998.59;5033651;28;20076;-69
2023/02/24 06:29:14;;;;;;;13.98;5.93;;;7.90;99.90;;;7.76;71.82;100980.84;5033599;28;20132;-69
2023/02/24 06:31:42;;;;;;;;;;;7.80;99.90;;;7.93;71.62;100987.16;5034093;28;20044;-69
2023/02/24 06:34:13;;;;;;;16.65;5.75;;;7.80;99.90;;;7.80;71.58;100964.22;5033320;28;20388;-69
2023/02/24 06:36:42;;;;;;;;;;;7.80;99.90;;;7.96;72.02;100989.81;5034085;28;20061;-69
2023/02/24 06:39:13;;;;;;;14.57;6.05;;;7.80;99.90;;;7.94;72.34;100986.28;5033710;28;19920;-69
2023/02/24 06:41:43;;;;;;;16.88;6.30;;;7.90;99.90;;;7.90;72.72;100981.84;5033400;28;20053;-69
2023/02/24 06:44:12;;;;;;;15.10;5.57;;;7.80;99.90;;;7.91;72.75;100965.19;5032198;28;20053;-69
2023/02/24 06:46:41;;;;;;;16.90;6.53;;;7.80;99.90;;;7.92;73.07;100971.31;5032229;28;20052;-69
2023/02/24 06:49:10;;;;;;;13.75;5.88;;;7.80;99.90;;;7.89;72.87;100966.94;5033087;28;20041;-69
2023/02/24 06:51:40;;;;;;;14.93;5.63;;;7.80;99.90;;;7.93;73.06;100966.09;5033015;28;20464;-69
2023/02/24 06:54:08;;;;;;;17.23;5.82;;;7.80;99.90;;;7.84;73.62;100973.91;5033266;28;20073;-69
2023/02/24 06:56:37;;;;;;;17.48;5.78;;;7.80;99.90;;;7.92;73.46;100966.06;5033071;28;20049;-69
2023/02/24 06:59:10;;;;;;;21.65;6.75;;;7.80;99.90;;;8.01;73.42;100961.75;5032907;28;20037;-69
2023/02/24 07:01:43;;;;;;;18.65;7.05;;;7.90;99.90;;;7.99;73.53;100955.59;5031853;28;20103;-71
2023/02/24 07:04:19;;;;;;;21.40;7.32;;;7.90;99.90;;;8.01;74.02;100967.00;5032699;28;20223;-69
2023/02/24 07:06:52;;;;;;;19.27;6.78;;;7.90;99.90;;;8.11;74.20;100965.31;5032897;28;20128;-69
2023/02/24 07:09:24;;;;;;;15.60;5.95;;;7.90;99.90;;;8.18;73.92;100970.66;5032758;28;20381;-69
2023/02/24 07:11:55;;;;;;;21.33;6.10;;;8.00;99.90;;;8.32;73.88;100967.28;5033048;28;20068;-69
2023/02/24 07:14:29;;;;;;;20.80;6.20;;;8.20;99.90;;;8.26;73.75;100959.31;5032699;28;20519;-69
2023/02/24 07:16:58;;;;;;;16.25;6.30;;;8.20;99.90;;;8.34;74.04;100961.16;5032711;28;20041;-69
2023/02/24 07:19:31;;;;;;;19.75;6.32;;;8.20;99.90;;;8.32;74.16;100962.00;5032670;28;20037;-69
2023/02/24 07:22:02;;;;;;;13.57;6.10;;;8.20;99.90;;;8.31;74.10;100962.84;5032959;28;20053;-69
2023/02/24 07:24:35;;;;;;;16.35;6.10;;;8.20;99.90;;;8.35;73.99;100952.34;5032927;28;20061;-69
2023/02/24 07:27:07;;;;;;;16.63;6.30;;;8.20;99.90;;;8.28;74.37;100941.78;5032778;28;20049;-69
2023/02/24 07:29:38;;;;;;;16.95;6.82;;;8.20;99.90;;;8.29;74.48;100931.22;5031562;28;20140;-69
2023/02/24 07:32:09;;;;;;;20.15;6.78;;;8.20;99.90;;;8.04;74.80;100889.78;5032557;28;20072;-69
2023/02/24 07:34:38;;;;;;;22.65;6.55;;;8.10;99.90;;;8.29;75.43;100925.06;5032709;28;20056;-69
2023/02/24 07:37:08;;;;;;;20.02;6.20;;;8.10;99.90;;;8.26;75.57;100917.16;5033146;28;20092;-69
2023/02/24 07:39:39;;;;;;;21.45;6.68;;;8.10;99.90;;;8.21;76.61;100919.72;5032476;28;20091;-69
2023/02/24 07:42:11;;;;;;;;;;;8.00;99.90;;;8.16;76.65;100918.84;5031944;28;20110;-69
2023/02/24 07:44:55;;;;;;;20.23;6.65;;;8.00;99.90;;;8.26;76.84;100904.88;5047826;28;19922;-70
2023/02/24 07:47:25;;;;;;;24.25;6.88;;;8.00;99.90;;;8.26;76.85;100909.25;5032360;28;20041;-70
2023/02/24 07:49:54;;;;;;;22.85;6.68;;;8.10;99.90;;;8.27;77.60;100911.00;5032648;28;20118;-70
2023/02/24 07:52:22;;;;;;;21.88;7.45;;;8.00;99.90;;;8.37;78.38;100903.16;5032307;28;20068;-69
2023/02/24 07:54:51;;;;;;;26.70;7.10;;;8.10;99.90;;;8.41;78.05;100906.69;5032637;28;20051;-69
2023/02/24 07:57:19;;;;;;;19.40;6.43;;;8.20;99.90;;;8.31;78.25;100896.97;5032364;28;20065;-69
2023/02/24 07:59:48;;;;;;;22.80;6.72;;;8.10;99.90;;;8.38;78.20;100901.44;5032330;28;20523;-69
2023/02/24 08:02:17;;;;;;;25.98;6.85;;;8.20;99.90;;;8.50;78.35;100899.72;5032454;28;20115;-69
2023/02/24 08:04:50;;;;;;;20.95;6.63;;;8.30;99.90;;;8.40;78.46;100897.03;5032353;28;20493;-69
2023/02/24 08:07:23;;;;;;;21.30;6.70;;;8.20;99.90;;;7.76;78.68;100769.38;5030591;28;20427;-69
2023/02/24 08:12:43;;;;;;;22.15;6.68;;;8.30;99.90;;;8.41;78.85;100883.88;5032500;28;20145;-69
2023/02/24 08:15:22;;;;;;;21.15;6.47;;;8.30;99.90;;;8.39;79.32;100864.53;5032735;28;20045;-69
2023/02/24 08:17:58;;;;;;;17.27;6.82;;;8.30;99.90;;;8.34;79.17;100881.19;5034476;28;20083;-69
2023/02/24 08:20:28;;;;;;;21.65;7.25;;;8.20;99.90;;;8.36;79.21;100898.78;5051697;28;20456;-69
2023/02/24 08:22:57;;;;;;;16.95;5.95;;;8.20;99.90;;;8.31;79.50;100878.53;5051407;28;20041;-69
2023/02/24 08:25:34;;;;;;;26.35;6.93;;;8.20;99.90;;;8.01;79.90;100871.34;5035639;28;20069;-69
2023/02/24 08:28:10;;;;;;;20.85;6.60;;;8.00;99.90;;;8.16;80.23;100877.56;5035749;28;20373;-69
2023/02/24 08:30:43;;;;;;;20.50;7.28;;;8.00;99.90;;;7.96;80.27;100823.91;5035610;28;20053;-69
2023/02/24 08:33:20;;;;;;;22.50;6.68;;;8.00;99.90;;;8.23;80.76;100863.53;5035453;28;20049;-69
2023/02/24 08:35:59;;;;;;;20.48;6.93;;;8.10;99.90;;;7.71;80.95;100750.03;5035586;28;20081;-69
2023/02/24 08:38:38;;;;;;;25.42;7.38;;;8.10;99.90;;;8.11;81.63;100842.41;5035510;28;20056;-70
2023/02/24 08:41:16;;;;;;;24.33;7.45;;;8.10;99.90;;;8.23;81.75;100849.47;5035367;28;20488;-69
2023/02/24 08:43:46;;;;;;;25.98;6.70;;;8.10;99.90;;;7.46;81.81;100709.56;5034033;28;20072;-70
2023/02/24 08:46:19;;;;;;;26.08;7.07;;;8.10;99.90;;;8.32;81.93;100846.06;5035884;28;20095;-69
2023/02/24 08:48:54;;;;;;;25.48;6.72;;;8.20;99.90;;;8.35;82.05;100841.66;5034379;28;20041;-69
2023/02/24 08:51:27;;;;;;;27.80;6.88;;;8.20;99.90;;;8.28;82.32;100828.47;5035567;28;20046;-69
2023/02/24 08:53:59;;;;;;;16.73;6.53;;;8.20;99.90;;;8.31;82.92;100829.34;5034772;28;20048;-70
2023/02/24 08:56:33;;;;;;;21.52;6.82;;;8.20;99.90;;;8.40;82.58;100839.91;5050852;28;20042;-69
2023/02/24 08:59:05;;;;;;;15.90;5.63;;;8.20;99.90;;;8.40;82.46;100817.97;5035712;28;20053;-69
2023/02/24 09:01:39;;;;;;;21.10;6.63;;;8.30;99.90;;;8.31;82.82;100832.00;5035145;28;20033;-69
2023/02/24 09:04:12;;;;;;;19.92;6.88;;;8.20;99.90;;;8.30;82.95;100819.72;5034345;28;20049;-69
2023/02/24 09:06:44;;;;;;;22.83;7.15;;;8.20;99.90;;;8.08;84.18;100788.84;5034241;28;20088;-69
2023/02/24 09:09:17;;;;;;;19.80;6.80;;;8.20;99.90;;;8.07;85.24;100787.09;5033912;28;20042;-69
2023/02/24 09:11:47;;;;;;;20.00;6.70;;;8.10;99.90;;;8.18;85.70;100786.25;5035153;28;20395;-69
2023/02/24 09:14:19;;;;;;;30.27;7.47;;;8.20;99.90;;;8.35;86.45;100812.69;5034123;28;20049;-69
2023/02/24 09:17:04;;;;;;;31.05;6.60;;;8.30;99.90;;;8.27;87.95;100811.78;5035093;28;20385;-69
2023/02/24 09:22:31;;;;;;;22.77;6.63;;;8.20;99.90;;;8.35;89.11;100807.41;5034730;28;20447;-69
2023/02/24 09:25:17;;;;;;;21.77;6.93;;;8.20;99.90;;;8.33;89.63;100801.25;5035086;28;20042;-69
2023/02/24 09:27:51;;;;;;;24.73;6.88;;;8.20;99.90;;;8.23;90.94;100780.13;5049665;28;20092;-69
2023/02/24 09:30:35;;;;;;;33.70;7.82;;;8.10;99.90;;;8.26;92.14;100795.97;5033919;28;20489;-69
2023/02/24 09:33:16;;;;;;;26.73;7.53;;;8.10;99.90;;;8.09;92.38;100749.31;5034840;28;20046;-70
2023/02/24 09:35:51;;;;;;;23.70;7.32;;;8.10;99.90;;;8.05;93.11;100742.28;5035049;28;20443;-69
2023/02/24 09:38:41;;;;;;;27.02;8.52;;;8.10;99.90;;;8.18;93.75;100749.38;5034925;28;20111;-69
2023/02/24 09:41:30;;;;;;;25.75;7.22;;;8.20;99.90;;;8.29;95.52;100786.31;5034632;28;20049;-69
2023/02/24 09:44:06;;;;;;;20.52;6.95;;;8.20;99.90;;;8.34;96.15;100788.97;5034204;28;20083;-69
2023/02/24 09:46:52;;;;;;;25.90;7.70;;;8.20;99.90;;;8.31;97.08;100771.38;5034410;28;20041;-69
2023/02/24 09:49:26;;;;;;;23.33;8.57;;;8.20;99.90;;;8.31;97.57;100775.78;5034482;28;20033;-70
2023/02/24 09:52:07;;;;;;;24.33;9.07;;;8.10;99.90;;;8.18;99.06;100769.56;5033061;28;20053;-69
2023/02/24 09:54:36;;;;;;;20.65;8.55;;;8.10;99.90;;;8.15;100.00;100765.16;5034321;28;20059;-70
2023/02/24 09:57:15;;;;;;;25.90;9.02;;;8.00;99.90;;;8.20;100.00;100766.06;5034243;28;20042;-70
2023/02/24 09:59:59;;;;;;;24.73;9.00;;;8.10;99.90;;;8.25;100.00;100765.19;5034233;28;20069;-69
2023/02/24 10:02:58;;;;;;;23.02;9.52;;;8.10;99.90;;;8.33;100.00;100769.63;5033948;28;20451;-70
2023/02/24 10:05:37;;;;;;;24.33;11.02;;;8.20;99.90;;;8.35;100.00;100764.38;5034126;28;20042;-70
2023/02/24 10:08:17;;;;;;;20.70;10.98;;;8.20;99.90;;;8.17;100.00;100744.06;5034091;28;20049;-70
2023/02/24 10:11:05;;;;;;;26.67;11.82;;;8.10;99.90;;;8.20;100.00;100758.16;5033850;28;20049;-71
2023/02/24 10:13:39;;;;;;;24.60;12.15;;;8.10;99.90;;;8.15;100.00;100754.63;5033630;28;20038;-70
2023/02/24 10:16:11;;;;;;;24.83;12.00;;;8.10;99.90;;;8.03;100.00;100715.06;5033686;28;20053;-70
2023/02/24 10:18:47;;;;;;;19.48;12.77;;;8.10;99.90;;;8.21;100.00;100752.00;5033673;28;20048;-70
2023/02/24 10:21:33;;;;;;;21.33;13.73;;;8.10;99.90;;;8.30;100.00;100743.28;5033870;28;20404;-70
2023/02/24 10:24:13;;;;;;;27.55;15.20;;;8.20;99.90;;;8.34;100.00;100746.81;5032544;28;20057;-70
2023/02/24 10:26:49;;;;;;;24.15;14.80;;;8.20;99.90;;;8.41;100.00;100738.03;5033451;28;20068;-70
2023/02/24 10:29:59;;;;;;;28.38;15.65;;;8.20;99.90;;;7.68;100.00;100637.72;5032260;28;20041;-70
2023/02/24 10:32:40;;;;;;;29.17;16.80;;;8.20;99.90;;;8.23;100.00;100736.19;5033702;28;20453;-70
2023/02/24 10:35:15;;;;;;;27.05;16.98;;;8.10;99.90;;;8.22;100.00;100737.09;5032436;28;20073;-71
2023/02/24 10:37:44;;;;;;;28.88;16.88;;;8.10;99.90;;;8.21;100.00;100736.19;5033888;28;20052;-71
2023/02/24 10:40:25;;;;;;;25.63;17.25;;;8.10;99.90;;;8.21;100.00;100728.28;5032273;28;20132;-70
2023/02/24 10:43:09;;;;;;;;;;;8.10;99.90;;;8.20;100.00;100731.81;5032618;28;20074;-70
2023/02/24 10:45:43;;;;;;;27.17;18.58;;;8.00;99.90;;;8.16;100.00;100732.69;5032441;28;19932;-70
2023/02/24 10:48:23;;;;;;;26.10;18.95;;;8.00;99.90;;;8.01;100.00;100721.22;5031740;28;20096;-70
2023/02/24 10:51:18;;;;;;;26.05;19.35;;;8.00;99.90;;;7.94;100.00;100717.66;5033623;28;20053;-70
2023/02/24 10:54:08;;;;;;;27.98;18.13;;;7.80;99.90;;;8.04;100.00;100711.56;5033339;28;20055;-70
2023/02/24 10:56:43;;;;;;;24.42;18.40;;;7.90;99.90;;;7.99;100.00;100725.59;5032955;28;20037;-70
2023/02/24 10:59:39;;;;;;;29.25;19.10;;;8.00;99.90;;;8.06;100.00;100715.09;5032863;28;20052;-70
2023/02/24 11:02:31;;;;;;;22.55;16.20;;;8.00;99.90;;;7.96;100.00;100718.56;5032831;28;20045;-70
2023/02/24 11:05:25;;;;;;;21.27;17.55;;;7.90;99.90;;;7.97;100.00;100712.44;5032110;28;20453;-70